createdAt,value
2023-11-27T00:00:37.291Z,-1.14
2023-11-27T00:03:07.284Z,-1.16
2023-11-27T00:05:33.887Z,-1.15
2023-11-27T00:08:00.526Z,-1.48
2023-11-27T00:10:27.218Z,-1.31
2023-11-27T00:12:56.321Z,-1.34
2023-11-27T00:15:24.421Z,-1.25
2023-11-27T00:17:51.185Z,-1.36
2023-11-27T00:20:17.861Z,-1.30
2023-11-27T00:22:44.558Z,-1.25
2023-11-27T00:25:11.320Z,-1.25
2023-11-27T00:27:37.916Z,-1.04
2023-11-27T00:30:07.476Z,-1.30
2023-11-27T00:32:34.785Z,-1.43
2023-11-27T00:35:01.378Z,-1.41
2023-11-27T00:37:28.630Z,-1.35
2023-11-27T00:39:55.552Z,-1.48
2023-11-27T00:42:22.204Z,-1.33
2023-11-27T00:44:48.890Z,-1.47
2023-11-27T00:47:16.086Z,-1.43
2023-11-27T00:49:42.808Z,-1.30
2023-11-27T00:52:09.404Z,-1.35
2023-11-27T00:54:36.084Z,-1.53
2023-11-27T00:57:02.701Z,-1.47
2023-11-27T00:59:29.563Z,-1.50
2023-11-27T01:01:56.357Z,-1.58
2023-11-27T01:04:23.064Z,-1.55
2023-11-27T01:06:53.374Z,-1.35
2023-11-27T01:09:22.253Z,-1.50
2023-11-27T01:11:48.986Z,-1.50
2023-11-27T01:14:16.609Z,-1.46
2023-11-27T01:16:43.430Z,-1.64
2023-11-27T01:19:10.507Z,-1.62
2023-11-27T01:21:37.086Z,-1.49
2023-11-27T01:24:06.570Z,-1.45
2023-11-27T01:26:34.239Z,-1.46
2023-11-27T01:29:00.796Z,-1.48
2023-11-27T01:31:27.708Z,-1.54
2023-11-27T01:33:54.374Z,-1.46
2023-11-27T01:36:21.190Z,-1.46
2023-11-27T01:38:48.036Z,-1.45
2023-11-27T01:41:15.200Z,-1.59
2023-11-27T01:43:42.452Z,-1.64
2023-11-27T01:46:12.343Z,-1.57
2023-11-27T01:48:39.137Z,-1.50
2023-11-27T01:51:06.018Z,-1.58
2023-11-27T01:53:33.166Z,-1.46
2023-11-27T01:56:00.260Z,-1.58
2023-11-27T01:58:27.006Z,-1.56
2023-11-27T02:00:53.763Z,-1.38
2023-11-27T02:03:21.845Z,-1.63
2023-11-27T02:05:48.413Z,-1.49
2023-11-27T02:08:15.078Z,-1.47
2023-11-27T02:10:41.622Z,-1.56
2023-11-27T02:13:08.419Z,-1.46
2023-11-27T02:15:35.084Z,-1.66
2023-11-27T02:18:01.682Z,-1.46
2023-11-27T02:20:28.315Z,-1.70
2023-11-27T02:22:55.494Z,-1.54
2023-11-27T02:25:22.241Z,-1.66
2023-11-27T02:27:49.025Z,-1.74
2023-11-27T02:30:15.700Z,-1.64
2023-11-27T02:32:42.259Z,-1.54
2023-11-27T02:35:09.206Z,-1.51
2023-11-27T02:37:35.878Z,-1.63
2023-11-27T02:40:02.676Z,-1.64
2023-11-27T02:42:29.357Z,-1.81
2023-11-27T02:44:56.064Z,-1.74
2023-11-27T02:47:22.913Z,-1.73
2023-11-27T02:49:50.256Z,-1.78
2023-11-27T02:52:17.953Z,-1.76
2023-11-27T02:54:44.934Z,-1.84
2023-11-27T02:57:12.150Z,-1.77
2023-11-27T02:59:38.697Z,-1.69
2023-11-27T03:02:05.599Z,-1.77
2023-11-27T03:04:32.664Z,-1.62
2023-11-27T03:06:59.429Z,-1.80
2023-11-27T03:09:26.044Z,-1.93
2023-11-27T03:11:52.702Z,-1.80
2023-11-27T03:14:19.268Z,-1.92
2023-11-27T03:16:46.705Z,-1.95
2023-11-27T03:19:13.479Z,-2.02
2023-11-27T03:21:40.376Z,-2.03
2023-11-27T03:24:07.380Z,-1.94
2023-11-27T03:26:34.179Z,-1.87
2023-11-27T03:29:01.491Z,-1.92
2023-11-27T03:31:28.435Z,-1.91
2023-11-27T03:33:55.106Z,-2.01
2023-11-27T03:36:21.812Z,-1.97
2023-11-27T03:38:48.439Z,-1.81
2023-11-27T03:41:22.405Z,-1.88
2023-11-27T03:43:49.540Z,-2.08
2023-11-27T03:46:16.702Z,-2.01
2023-11-27T03:48:43.690Z,-2.18
2023-11-27T03:51:10.621Z,-2.15
2023-11-27T03:53:37.183Z,-2.17
2023-11-27T03:56:03.982Z,-2.15
2023-11-27T03:58:30.602Z,-2.15
2023-11-27T04:00:58.813Z,-2.24
2023-11-27T04:03:25.818Z,-2.36
2023-11-27T04:05:52.553Z,-2.36
2023-11-27T04:08:19.155Z,-2.23
2023-11-27T04:10:45.967Z,-2.23
2023-11-27T04:13:12.588Z,-2.25
2023-11-27T04:15:39.822Z,-2.18
2023-11-27T04:18:06.699Z,-2.21
2023-11-27T04:20:33.286Z,-2.36
2023-11-27T04:22:59.870Z,-2.25
2023-11-27T04:25:26.808Z,-1.95
2023-11-27T04:27:53.443Z,-1.96
2023-11-27T04:30:20.012Z,-1.91
2023-11-27T04:32:46.919Z,-2.13
2023-11-27T04:35:14.138Z,-2.17
2023-11-27T04:37:41.126Z,-2.23
2023-11-27T04:40:12.268Z,-2.02
2023-11-27T04:42:39.517Z,-2.17
2023-11-27T04:45:08.232Z,-2.16
2023-11-27T04:47:35.451Z,-2.02
2023-11-27T04:50:02.613Z,-2.16
2023-11-27T04:52:30.426Z,-2.13
2023-11-27T04:54:57.122Z,-2.18
2023-11-27T04:57:25.692Z,-2.04
2023-11-27T04:59:52.273Z,-2.35
2023-11-27T05:02:18.980Z,-2.27
2023-11-27T05:04:46.143Z,-2.35
2023-11-27T05:07:12.745Z,-2.26
2023-11-27T05:09:42.868Z,-2.35
2023-11-27T05:12:17.566Z,-2.33
2023-11-27T05:14:50.737Z,-2.41
2023-11-27T05:17:17.409Z,-2.23
2023-11-27T05:19:44.164Z,-2.15
2023-11-27T05:22:10.769Z,-2.27
2023-11-27T05:24:37.407Z,-2.25
2023-11-27T05:27:04.576Z,-2.26
2023-11-27T05:29:31.198Z,-2.23
2023-11-27T05:31:57.868Z,-2.25
2023-11-27T05:34:25.635Z,-2.36
2023-11-27T05:36:52.443Z,-2.29
2023-11-27T05:39:19.403Z,-2.32
2023-11-27T05:41:50.428Z,-2.28
2023-11-27T05:44:19.179Z,-1.99
2023-11-27T05:46:46.061Z,-2.34
2023-11-27T05:49:12.929Z,-2.42
2023-11-27T05:51:41.265Z,-2.39
2023-11-27T05:54:08.558Z,-2.44
2023-11-27T05:56:35.177Z,-2.42
2023-11-27T05:59:01.742Z,-2.56
2023-11-27T06:01:28.412Z,-2.59
2023-11-27T06:03:55.133Z,-2.50
2023-11-27T06:06:23.305Z,-2.55
2023-11-27T06:08:51.057Z,-2.36
2023-11-27T06:11:18.704Z,-2.43
2023-11-27T06:13:45.640Z,-2.45
2023-11-27T06:16:13.161Z,-2.44
2023-11-27T06:18:40.065Z,-2.57
2023-11-27T06:21:07.714Z,-2.49
2023-11-27T06:23:34.665Z,-2.40
2023-11-27T06:26:02.567Z,-2.45
2023-11-27T06:28:29.934Z,-2.44
2023-11-27T06:30:56.808Z,-2.42
2023-11-27T06:33:24.428Z,-2.41
2023-11-27T06:35:52.839Z,-2.33
2023-11-27T06:38:20.207Z,-2.37
2023-11-27T06:40:48.234Z,-2.27
2023-11-27T06:43:16.739Z,-2.27
2023-11-27T06:45:43.998Z,-2.15
2023-11-27T06:48:10.742Z,-2.18
2023-11-27T06:50:37.405Z,-2.12
2023-11-27T06:53:04.100Z,-2.06
2023-11-27T06:55:31.187Z,-2.13
2023-11-27T06:57:57.958Z,-2.20
2023-11-27T07:00:25.921Z,-2.31
2023-11-27T07:02:52.601Z,-2.30
2023-11-27T07:05:19.663Z,-2.33
2023-11-27T07:07:46.481Z,-2.32
2023-11-27T07:10:15.051Z,-2.28
2023-11-27T07:12:42.159Z,-2.25
2023-11-27T07:15:13.242Z,-2.14
2023-11-27T07:17:40.143Z,-2.15
2023-11-27T07:20:07.595Z,-2.20
2023-11-27T07:22:34.406Z,-2.14
2023-11-27T07:25:01.090Z,-2.09
2023-11-27T07:27:30.140Z,-2.09
2023-11-27T07:29:56.913Z,-2.01
2023-11-27T07:32:24.413Z,-2.00
2023-11-27T07:34:51.057Z,-2.12
2023-11-27T07:37:17.684Z,-2.09
2023-11-27T07:39:45.999Z,-2.13
2023-11-27T07:42:15.968Z,-2.18
2023-11-27T07:44:44.506Z,-2.25
2023-11-27T07:47:11.516Z,-2.15
2023-11-27T07:49:38.440Z,-2.02
2023-11-27T07:52:05.418Z,-2.20
2023-11-27T07:54:32.518Z,-2.09
2023-11-27T07:56:59.333Z,-2.18
2023-11-27T07:59:29.053Z,-2.14
2023-11-27T08:01:57.485Z,-2.12
2023-11-27T08:04:25.406Z,-2.12
2023-11-27T08:06:52.374Z,-1.97
2023-11-27T08:09:18.932Z,-1.91
2023-11-27T08:11:45.707Z,-2.02
2023-11-27T08:14:14.888Z,-1.91
2023-11-27T08:16:41.593Z,-1.95
2023-11-27T08:19:11.110Z,-2.05
2023-11-27T08:21:37.899Z,-1.98
2023-11-27T08:24:05.430Z,-1.99
2023-11-27T08:26:40.698Z,-1.97
2023-11-27T08:29:09.214Z,-1.82
2023-11-27T08:31:37.097Z,-1.89
2023-11-27T08:34:07.021Z,-1.86
2023-11-27T08:36:36.444Z,-1.87
2023-11-27T08:39:05.437Z,-1.87
2023-11-27T08:41:32.348Z,-1.85
2023-11-27T08:43:59.063Z,-1.91
2023-11-27T08:46:25.988Z,-1.87
2023-11-27T08:48:52.757Z,-1.81
2023-11-27T08:51:22.735Z,-1.88
2023-11-27T08:53:49.505Z,-1.77
2023-11-27T08:56:19.520Z,-1.84
2023-11-27T08:58:49.638Z,-1.89
2023-11-27T09:01:18.065Z,-1.80
2023-11-27T09:03:46.139Z,-1.61
2023-11-27T09:06:12.873Z,-1.67
2023-11-27T09:08:40.417Z,-1.64
2023-11-27T09:11:12.445Z,-1.74
2023-11-27T09:13:39.638Z,-1.59
2023-11-27T09:16:06.990Z,-1.46
2023-11-27T09:18:33.950Z,-1.37
2023-11-27T09:21:00.632Z,-1.51
2023-11-27T09:23:27.480Z,-1.67
2023-11-27T09:25:54.676Z,-1.63
2023-11-27T09:28:21.442Z,-1.77
2023-11-27T09:30:48.487Z,-1.43
2023-11-27T09:33:15.859Z,-1.40
2023-11-27T09:35:42.749Z,-1.55
2023-11-27T09:38:09.612Z,-1.64
2023-11-27T09:40:43.250Z,-1.66
2023-11-27T09:43:10.954Z,-1.35
2023-11-27T09:45:38.652Z,-1.62
2023-11-27T09:48:12.221Z,-1.72
2023-11-27T09:50:43.600Z,-1.69
2023-11-27T09:53:10.755Z,-1.72
2023-11-27T09:55:42.043Z,-1.61
2023-11-27T09:58:14.663Z,-1.54
2023-11-27T10:00:44.051Z,-1.53
2023-11-27T10:03:11.445Z,-1.78
2023-11-27T10:05:38.947Z,-1.55
2023-11-27T10:08:10.191Z,-1.52
2023-11-27T10:10:37.073Z,-1.69
2023-11-27T10:13:14.919Z,-1.82
2023-11-27T10:15:50.593Z,-1.63
2023-11-27T10:18:21.172Z,-1.68
2023-11-27T10:20:51.145Z,-1.73
2023-11-27T10:23:18.029Z,-1.77
2023-11-27T10:25:46.310Z,-1.66
2023-11-27T10:28:16.616Z,-1.64
2023-11-27T10:30:46.539Z,-1.61
2023-11-27T10:33:13.514Z,-1.70
2023-11-27T10:35:43.082Z,-1.69
2023-11-27T10:38:17.459Z,-1.53
2023-11-27T10:40:45.438Z,-1.56
2023-11-27T10:43:12.813Z,-1.56
2023-11-27T10:45:41.631Z,-1.53
2023-11-27T10:48:12.258Z,-1.48
2023-11-27T10:50:41.065Z,-1.44
2023-11-27T10:53:09.652Z,-1.63
2023-11-27T10:55:38.590Z,-1.60
2023-11-27T10:58:07.057Z,-1.60
2023-11-27T11:00:48.540Z,-1.66
2023-11-27T11:03:17.022Z,-1.67
2023-11-27T11:05:51.249Z,-1.41
2023-11-27T11:08:29.171Z,-1.65
2023-11-27T11:10:57.878Z,-1.74
2023-11-27T11:13:29.003Z,-1.78
2023-11-27T11:16:20.235Z,-1.86
2023-11-27T11:19:09.635Z,-1.85
2023-11-27T11:21:42.277Z,-1.66
2023-11-27T11:24:35.222Z,-1.70
2023-11-27T11:27:24.016Z,-1.68
2023-11-27T11:29:52.895Z,-1.68
2023-11-27T11:32:21.627Z,-1.72
2023-11-27T11:34:52.083Z,-1.42
2023-11-27T11:37:22.333Z,-1.41
2023-11-27T11:39:50.941Z,-1.26
2023-11-27T11:42:21.952Z,-1.39
2023-11-27T11:45:26.855Z,-1.19
2023-11-27T11:48:08.345Z,-1.22
2023-11-27T11:50:44.488Z,-1.45
2023-11-27T11:53:24.455Z,-1.49
2023-11-27T11:55:52.434Z,-1.38
2023-11-27T11:58:19.297Z,-1.37
2023-11-27T12:00:54.923Z,-1.33
2023-11-27T12:03:24.683Z,-1.57
2023-11-27T12:05:55.618Z,-1.59
2023-11-27T12:08:27.204Z,-1.57
2023-11-27T12:10:55.174Z,-1.48
2023-11-27T12:13:36.192Z,-1.42
2023-11-27T12:16:15.168Z,-1.19
2023-11-27T12:18:51.049Z,-1.40
2023-11-27T12:21:25.920Z,-1.24
2023-11-27T12:23:54.895Z,-1.25
2023-11-27T12:26:25.619Z,-1.19
2023-11-27T12:28:53.747Z,-1.41
2023-11-27T12:31:22.335Z,-1.53
2023-11-27T12:33:49.795Z,-1.58
2023-11-27T12:36:22.564Z,-1.58
2023-11-27T12:38:54.767Z,-1.54
2023-11-27T12:41:33.978Z,-1.63
2023-11-27T12:44:17.740Z,-1.63
2023-11-27T12:46:52.110Z,-1.60
2023-11-27T12:49:29.023Z,-1.49
2023-11-27T12:52:02.144Z,-1.25
2023-11-27T12:54:29.448Z,-1.49
2023-11-27T12:57:03.852Z,-1.46
2023-11-27T12:59:30.955Z,-1.51
2023-11-27T13:02:01.096Z,-1.47
2023-11-27T13:04:32.431Z,-1.53
2023-11-27T13:07:01.142Z,-1.31
2023-11-27T13:09:27.802Z,-1.20
2023-11-27T13:11:55.148Z,-1.24
2023-11-27T13:14:24.568Z,-1.31
2023-11-27T13:16:54.692Z,-1.17
2023-11-27T13:19:26.261Z,-1.42
2023-11-27T13:21:56.795Z,-1.35
2023-11-27T13:24:31.645Z,-1.20
2023-11-27T13:27:06.431Z,-1.25
2023-11-27T13:29:33.355Z,-1.19
2023-11-27T13:32:02.761Z,-1.15
2023-11-27T13:34:36.888Z,-1.18
2023-11-27T13:37:11.634Z,-0.97
2023-11-27T13:39:42.345Z,-1.00
2023-11-27T13:42:16.355Z,-1.42
2023-11-27T13:44:46.559Z,-1.48
2023-11-27T13:47:18.694Z,-1.43
2023-11-27T13:49:49.819Z,-1.52
2023-11-27T13:52:18.468Z,-1.44
2023-11-27T13:54:50.353Z,-1.45
2023-11-27T13:57:28.932Z,-1.47
2023-11-27T13:59:59.178Z,-1.53
2023-11-27T14:02:29.709Z,-1.54
2023-11-27T14:05:07.281Z,-1.54
2023-11-27T14:07:43.147Z,-1.56
2023-11-27T14:10:24.517Z,-1.47
2023-11-27T14:13:02.838Z,-1.49
2023-11-27T14:15:40.529Z,-1.53
2023-11-27T14:18:22.007Z,-1.39
2023-11-27T14:21:09.609Z,-1.63
2023-11-27T14:23:42.497Z,-1.43
2023-11-27T14:26:09.341Z,-1.54
2023-11-27T14:28:49.556Z,-1.49
2023-11-27T14:31:19.736Z,-1.54
2023-11-27T14:33:51.587Z,-1.52
2023-11-27T14:36:18.713Z,-1.36
2023-11-27T14:38:47.292Z,-1.36
2023-11-27T14:41:14.509Z,-1.49
2023-11-27T14:43:43.838Z,-1.42
2023-11-27T14:46:16.347Z,-1.32
2023-11-27T14:48:44.345Z,-1.45
2023-11-27T14:51:15.965Z,-1.27
2023-11-27T14:53:57.164Z,-1.20
2023-11-27T14:56:27.785Z,-1.29
2023-11-27T14:58:56.390Z,-1.35
2023-11-27T15:01:27.424Z,-1.31
2023-11-27T15:03:55.166Z,-1.33
2023-11-27T15:06:26.108Z,-1.27
2023-11-27T15:08:53.201Z,-1.22
2023-11-27T15:11:19.873Z,-1.21
2023-11-27T15:13:46.710Z,-1.26
2023-11-27T15:16:18.303Z,-1.36
2023-11-27T15:18:47.993Z,-1.54
2023-11-27T15:21:17.086Z,-1.52
2023-11-27T15:23:44.011Z,-1.29
2023-11-27T15:26:11.314Z,-1.34
2023-11-27T15:28:37.964Z,-1.34
2023-11-27T15:31:05.975Z,-1.49
2023-11-27T15:33:35.548Z,-1.53
2023-11-27T15:36:09.240Z,-1.47
2023-11-27T15:38:36.214Z,-1.48
2023-11-27T15:41:05.296Z,-1.37
2023-11-27T15:43:32.057Z,-1.26
2023-11-27T15:46:03.645Z,-1.39
2023-11-27T15:48:32.829Z,-1.53
2023-11-27T15:50:59.629Z,-1.51
2023-11-27T15:53:30.712Z,-1.41
2023-11-27T15:55:58.636Z,-1.48
2023-11-27T15:58:26.012Z,-1.31
2023-11-27T16:00:54.092Z,-1.40
2023-11-27T16:03:22.277Z,-1.38
2023-11-27T16:05:51.383Z,-1.38
2023-11-27T16:08:18.054Z,-1.23
2023-11-27T16:10:49.966Z,-1.04
2023-11-27T16:13:19.974Z,-1.02
2023-11-27T16:15:48.189Z,-1.24
2023-11-27T16:18:18.614Z,-1.29
2023-11-27T16:20:47.539Z,-1.09
2023-11-27T16:23:14.207Z,-1.06
2023-11-27T16:25:41.824Z,-1.21
2023-11-27T16:28:12.959Z,-1.14
2023-11-27T16:30:39.898Z,-1.34
2023-11-27T16:33:08.792Z,-1.52
2023-11-27T16:35:36.713Z,-1.41
2023-11-27T16:38:03.833Z,-1.26
2023-11-27T16:40:31.964Z,-1.32
2023-11-27T16:42:58.846Z,-1.31
2023-11-27T16:45:27.588Z,-1.32
2023-11-27T16:48:01.130Z,-1.39
2023-11-27T16:50:31.591Z,-1.39
2023-11-27T16:52:59.045Z,-1.52
2023-11-27T16:55:31.046Z,-1.49
2023-11-27T16:58:09.302Z,-1.41
2023-11-27T17:00:38.180Z,-1.49
2023-11-27T17:03:08.065Z,-1.44
2023-11-27T17:05:35.549Z,-1.38
2023-11-27T17:08:04.592Z,-1.26
2023-11-27T17:10:32.205Z,-1.20
2023-11-27T17:12:59.755Z,-1.30
2023-11-27T17:15:27.085Z,-1.30
2023-11-27T17:17:54.635Z,-1.35
2023-11-27T17:20:27.478Z,-1.45
2023-11-27T17:23:04.119Z,-1.41
2023-11-27T17:25:37.153Z,-1.51
2023-11-27T17:28:06.743Z,-1.54
2023-11-27T17:30:38.151Z,-1.44
2023-11-27T17:33:05.232Z,-1.47
2023-11-27T17:35:37.893Z,-1.51
2023-11-27T17:38:07.160Z,-1.42
2023-11-27T17:40:34.036Z,-1.45
2023-11-27T17:43:01.113Z,-1.43
2023-11-27T17:45:33.816Z,-1.36
2023-11-27T17:48:01.970Z,-1.46
2023-11-27T17:50:30.603Z,-1.41
2023-11-27T17:52:57.930Z,-1.40
2023-11-27T17:55:29.080Z,-1.29
2023-11-27T17:57:57.557Z,-1.47
2023-11-27T18:00:25.548Z,-1.52
2023-11-27T18:02:54.107Z,-1.60
2023-11-27T18:05:25.662Z,-1.63
2023-11-27T18:07:58.139Z,-1.55
2023-11-27T18:10:26.006Z,-1.55
2023-11-27T18:12:56.893Z,-1.53
2023-11-27T18:15:24.504Z,-1.40
2023-11-27T18:17:52.910Z,-1.44
2023-11-27T18:20:23.194Z,-1.41
2023-11-27T18:22:51.205Z,-1.49
2023-11-27T18:25:25.681Z,-1.49
2023-11-27T18:27:56.897Z,-1.48
2023-11-27T18:30:25.709Z,-1.35
2023-11-27T18:32:52.377Z,-1.48
2023-11-27T18:35:20.138Z,-1.32
2023-11-27T18:37:49.144Z,-1.46
2023-11-27T18:40:18.845Z,-1.45
2023-11-27T18:42:49.950Z,-1.48
2023-11-27T18:45:20.177Z,-1.45
2023-11-27T18:47:47.614Z,-1.47
2023-11-27T18:50:14.525Z,-1.39
2023-11-27T18:52:43.072Z,-1.55
2023-11-27T18:55:10.361Z,-1.44
2023-11-27T18:57:38.157Z,-1.44
2023-11-27T19:00:06.317Z,-1.58
2023-11-27T19:02:33.708Z,-1.57
2023-11-27T19:05:00.841Z,-1.60
2023-11-27T19:07:27.795Z,-1.67
2023-11-27T19:09:56.175Z,-1.62
2023-11-27T19:12:24.367Z,-1.59
2023-11-27T19:14:54.055Z,-1.43
2023-11-27T19:17:21.829Z,-1.36
2023-11-27T19:19:50.378Z,-1.21
2023-11-27T19:22:18.077Z,-1.26
2023-11-27T19:24:47.895Z,-1.49
2023-11-27T19:27:14.718Z,-1.51
2023-11-27T19:29:41.427Z,-1.57
2023-11-27T19:32:08.581Z,-1.56
2023-11-27T19:34:35.637Z,-1.41
2023-11-27T19:37:04.880Z,-1.58
2023-11-27T19:39:31.940Z,-1.62
2023-11-27T19:41:59.847Z,-1.55
2023-11-27T19:44:27.655Z,-1.42
2023-11-27T19:46:57.555Z,-1.59
2023-11-27T19:49:27.260Z,-1.58
2023-11-27T19:51:55.090Z,-1.58
2023-11-27T19:54:25.859Z,-1.63
2023-11-27T19:56:53.331Z,-1.61
2023-11-27T19:59:22.115Z,-1.44
2023-11-27T20:01:50.363Z,-1.51
2023-11-27T20:04:17.443Z,-1.62
2023-11-27T20:06:44.332Z,-1.63
2023-11-27T20:09:16.585Z,-1.71
2023-11-27T20:11:43.720Z,-1.72
2023-11-27T20:14:10.790Z,-1.75
2023-11-27T20:16:38.474Z,-1.73
2023-11-27T20:19:06.776Z,-1.72
2023-11-27T20:21:34.330Z,-1.74
2023-11-27T20:24:01.663Z,-1.74
2023-11-27T20:26:29.675Z,-1.66
2023-11-27T20:28:59.399Z,-1.74
2023-11-27T20:31:33.807Z,-1.72
2023-11-27T20:34:04.765Z,-1.72
2023-11-27T20:36:33.820Z,-1.74
2023-11-27T20:39:01.204Z,-1.75
2023-11-27T20:41:28.302Z,-1.80
2023-11-27T20:43:58.549Z,-1.78
2023-11-27T20:46:28.691Z,-1.76
2023-11-27T20:48:59.814Z,-1.74
2023-11-27T20:51:30.044Z,-1.78
2023-11-27T20:53:57.936Z,-1.79
2023-11-27T20:56:27.286Z,-1.81
2023-11-27T20:58:54.188Z,-1.56
2023-11-27T21:01:25.955Z,-1.34
2023-11-27T21:03:54.060Z,-1.25
2023-11-27T21:06:28.287Z,-1.03
2023-11-27T21:08:56.003Z,-1.01
2023-11-27T21:11:25.613Z,-1.35
2023-11-27T21:13:53.717Z,-1.57
2023-11-27T21:16:21.689Z,-1.56
2023-11-27T21:18:49.511Z,-1.63
2023-11-27T21:21:16.349Z,-1.58
2023-11-27T21:23:43.477Z,-1.66
2023-11-27T21:26:13.160Z,-1.70
2023-11-27T21:28:42.582Z,-1.73
2023-11-27T21:31:10.466Z,-1.75
2023-11-27T21:33:37.869Z,-1.79
2023-11-27T21:36:04.746Z,-1.76
2023-11-27T21:38:31.836Z,-1.62
2023-11-27T21:40:58.962Z,-1.67
2023-11-27T21:43:25.908Z,-1.65
2023-11-27T21:45:54.331Z,-1.73
2023-11-27T21:48:21.047Z,-1.79
2023-11-27T21:50:47.788Z,-1.79
2023-11-27T21:53:14.567Z,-1.75
2023-11-27T21:55:41.420Z,-1.78
2023-11-27T21:58:08.328Z,-1.79
2023-11-27T22:00:35.314Z,-1.82
2023-11-27T22:03:02.125Z,-1.77
2023-11-27T22:05:29.203Z,-1.64
2023-11-27T22:07:56.320Z,-1.58
2023-11-27T22:10:24.359Z,-1.59
2023-11-27T22:12:50.999Z,-1.62
2023-11-27T22:15:17.743Z,-1.57
2023-11-27T22:17:44.891Z,-1.66
2023-11-27T22:20:12.963Z,-1.51
2023-11-27T22:22:41.640Z,-1.60
2023-11-27T22:25:09.149Z,-1.70
2023-11-27T22:27:37.094Z,-1.72
2023-11-27T22:30:06.384Z,-1.56
2023-11-27T22:32:33.188Z,-1.72
2023-11-27T22:34:59.853Z,-1.63
2023-11-27T22:37:26.567Z,-1.67
2023-11-27T22:39:53.195Z,-1.82
2023-11-27T22:42:19.962Z,-1.78
2023-11-27T22:44:47.363Z,-1.70
2023-11-27T22:47:14.464Z,-1.77
2023-11-27T22:49:41.047Z,-1.70
2023-11-27T22:52:08.091Z,-1.63
2023-11-27T22:54:34.713Z,-1.72
2023-11-27T22:57:01.435Z,-1.68
2023-11-27T22:59:28.195Z,-1.50
2023-11-27T23:01:55.090Z,-1.53
2023-11-27T23:04:22.203Z,-1.62
2023-11-27T23:06:49.087Z,-1.60
2023-11-27T23:09:15.869Z,-1.78
2023-11-27T23:11:48.988Z,-1.76
2023-11-27T23:14:16.144Z,-1.89
2023-11-27T23:16:43.433Z,-1.79
2023-11-27T23:19:10.578Z,-1.80
2023-11-27T23:21:38.653Z,-1.62
2023-11-27T23:24:13.900Z,-1.56
2023-11-27T23:26:44.421Z,-1.54
2023-11-27T23:29:11.462Z,-1.60
2023-11-27T23:31:38.041Z,-1.53
2023-11-27T23:34:05.354Z,-1.52
2023-11-27T23:36:32.371Z,-1.49
2023-11-27T23:38:59.054Z,-1.48
2023-11-27T23:41:25.752Z,-1.48
2023-11-27T23:43:54.323Z,-1.47
2023-11-27T23:46:22.113Z,-1.40
2023-11-27T23:48:52.376Z,-1.34
2023-11-27T23:51:20.747Z,-1.44
2023-11-27T23:53:50.182Z,-1.47
2023-11-27T23:56:16.744Z,-1.58
2023-11-27T23:58:43.871Z,-1.58
